sensor_id;sensor_type;location;lat;lon;timestamp;P1;durP1;ratioP1;P2;durP2;ratioP2
42662;SDS011;44330;51.360;6.686;2023-04-30T00:02:06;15.57;;;9.50;;
42662;SDS011;44330;51.360;6.686;2023-04-30T00:04:32;18.10;;;9.10;;
42662;SDS011;44330;51.360;6.686;2023-04-30T00:06:58;18.48;;;9.98;;
42662;SDS011;44330;51.360;6.686;2023-04-30T00:09:23;16.05;;;9.27;;
42662;SDS011;44330;51.360;6.686;2023-04-30T00:11:49;16.45;;;8.80;;
42662;SDS011;44330;51.360;6.686;2023-04-30T00:14:14;17.85;;;8.98;;
42662;SDS011;44330;51.360;6.686;2023-04-30T00:16:40;16.13;;;9.52;;
42662;SDS011;44330;51.360;6.686;2023-04-30T00:19:06;16.58;;;9.70;;
42662;SDS011;44330;51.360;6.686;2023-04-30T00:21:32;18.73;;;9.77;;
42662;SDS011;44330;51.360;6.686;2023-04-30T00:23:58;19.20;;;9.80;;
42662;SDS011;44330;51.360;6.686;2023-04-30T00:26:24;15.55;;;9.38;;
42662;SDS011;44330;51.360;6.686;2023-04-30T00:28:50;14.05;;;9.00;;
42662;SDS011;44330;51.360;6.686;2023-04-30T00:31:16;18.65;;;8.70;;
42662;SDS011;44330;51.360;6.686;2023-04-30T00:33:41;19.33;;;9.88;;
42662;SDS011;44330;51.360;6.686;2023-04-30T00:36:07;20.38;;;9.75;;
42662;SDS011;44330;51.360;6.686;2023-04-30T00:38:33;17.98;;;10.65;;
42662;SDS011;44330;51.360;6.686;2023-04-30T00:40:58;18.65;;;9.23;;
42662;SDS011;44330;51.360;6.686;2023-04-30T00:43:24;17.70;;;10.02;;
42662;SDS011;44330;51.360;6.686;2023-04-30T00:45:49;18.42;;;9.65;;
42662;SDS011;44330;51.360;6.686;2023-04-30T00:48:15;18.77;;;9.95;;
42662;SDS011;44330;51.360;6.686;2023-04-30T00:50:41;17.98;;;9.73;;
42662;SDS011;44330;51.360;6.686;2023-04-30T00:53:08;15.25;;;10.00;;
42662;SDS011;44330;51.360;6.686;2023-04-30T00:55:34;16.17;;;9.80;;
42662;SDS011;44330;51.360;6.686;2023-04-30T00:58:00;18.50;;;10.02;;
42662;SDS011;44330;51.360;6.686;2023-04-30T01:00:26;18.13;;;10.13;;
42662;SDS011;44330;51.360;6.686;2023-04-30T01:02:52;17.83;;;10.20;;
42662;SDS011;44330;51.360;6.686;2023-04-30T01:05:19;18.65;;;9.73;;
42662;SDS011;44330;51.360;6.686;2023-04-30T01:07:46;20.00;;;10.35;;
42662;SDS011;44330;51.360;6.686;2023-04-30T01:10:13;17.00;;;9.60;;
42662;SDS011;44330;51.360;6.686;2023-04-30T01:12:47;22.33;;;10.52;;
42662;SDS011;44330;51.360;6.686;2023-04-30T01:17:47;22.38;;;11.60;;
42662;SDS011;44330;51.360;6.686;2023-04-30T01:20:19;17.40;;;9.75;;
42662;SDS011;44330;51.360;6.686;2023-04-30T01:22:48;18.98;;;10.82;;
42662;SDS011;44330;51.360;6.686;2023-04-30T01:25:34;24.30;;;11.23;;
42662;SDS011;44330;51.360;6.686;2023-04-30T01:28:17;44.63;;;18.65;;
42662;SDS011;44330;51.360;6.686;2023-04-30T01:30:44;19.30;;;11.13;;
42662;SDS011;44330;51.360;6.686;2023-04-30T01:33:11;17.90;;;10.95;;
42662;SDS011;44330;51.360;6.686;2023-04-30T01:41:35;55.55;;;22.90;;
42662;SDS011;44330;51.360;6.686;2023-04-30T01:47:01;32.22;;;13.43;;
42662;SDS011;44330;51.360;6.686;2023-04-30T01:49:38;20.90;;;12.75;;
42662;SDS011;44330;51.360;6.686;2023-04-30T01:54:54;21.35;;;10.82;;
42662;SDS011;44330;51.360;6.686;2023-04-30T01:57:36;18.38;;;10.80;;
42662;SDS011;44330;51.360;6.686;2023-04-30T02:00:03;19.48;;;11.57;;
42662;SDS011;44330;51.360;6.686;2023-04-30T02:02:33;20.02;;;10.38;;
42662;SDS011;44330;51.360;6.686;2023-04-30T02:04:59;20.67;;;10.50;;
42662;SDS011;44330;51.360;6.686;2023-04-30T02:07:28;15.00;;;9.90;;
42662;SDS011;44330;51.360;6.686;2023-04-30T02:10:02;19.42;;;10.95;;
42662;SDS011;44330;51.360;6.686;2023-04-30T02:12:28;17.25;;;9.52;;
42662;SDS011;44330;51.360;6.686;2023-04-30T02:14:54;18.65;;;10.90;;
42662;SDS011;44330;51.360;6.686;2023-04-30T02:17:19;17.30;;;10.43;;
42662;SDS011;44330;51.360;6.686;2023-04-30T02:19:45;21.95;;;12.27;;
42662;SDS011;44330;51.360;6.686;2023-04-30T02:22:11;17.35;;;11.10;;
42662;SDS011;44330;51.360;6.686;2023-04-30T02:24:36;28.25;;;12.38;;
42662;SDS011;44330;51.360;6.686;2023-04-30T02:27:02;21.08;;;12.20;;
42662;SDS011;44330;51.360;6.686;2023-04-30T02:29:27;17.67;;;11.68;;
42662;SDS011;44330;51.360;6.686;2023-04-30T02:31:53;17.45;;;11.57;;
42662;SDS011;44330;51.360;6.686;2023-04-30T02:34:19;27.20;;;13.82;;
42662;SDS011;44330;51.360;6.686;2023-04-30T02:36:45;21.75;;;12.60;;
42662;SDS011;44330;51.360;6.686;2023-04-30T02:39:10;31.17;;;15.98;;
42662;SDS011;44330;51.360;6.686;2023-04-30T02:41:36;25.75;;;13.40;;
42662;SDS011;44330;51.360;6.686;2023-04-30T02:44:01;23.15;;;13.20;;
42662;SDS011;44330;51.360;6.686;2023-04-30T02:46:27;23.70;;;13.32;;
42662;SDS011;44330;51.360;6.686;2023-04-30T02:48:53;22.83;;;13.25;;
42662;SDS011;44330;51.360;6.686;2023-04-30T02:51:18;19.30;;;11.77;;
42662;SDS011;44330;51.360;6.686;2023-04-30T02:53:44;22.85;;;12.68;;
42662;SDS011;44330;51.360;6.686;2023-04-30T02:56:10;21.02;;;12.50;;
42662;SDS011;44330;51.360;6.686;2023-04-30T02:58:35;22.63;;;12.13;;
42662;SDS011;44330;51.360;6.686;2023-04-30T03:01:02;17.60;;;11.48;;
42662;SDS011;44330;51.360;6.686;2023-04-30T03:03:27;19.80;;;11.25;;
42662;SDS011;44330;51.360;6.686;2023-04-30T03:05:53;20.60;;;12.00;;
42662;SDS011;44330;51.360;6.686;2023-04-30T03:08:20;20.67;;;11.50;;
42662;SDS011;44330;51.360;6.686;2023-04-30T03:10:46;21.05;;;13.05;;
42662;SDS011;44330;51.360;6.686;2023-04-30T03:13:11;20.58;;;12.65;;
42662;SDS011;44330;51.360;6.686;2023-04-30T03:15:37;25.60;;;13.10;;
42662;SDS011;44330;51.360;6.686;2023-04-30T03:18:03;20.80;;;12.38;;
42662;SDS011;44330;51.360;6.686;2023-04-30T03:20:28;24.60;;;13.10;;
42662;SDS011;44330;51.360;6.686;2023-04-30T03:22:54;22.10;;;13.77;;
42662;SDS011;44330;51.360;6.686;2023-04-30T03:25:20;23.17;;;13.05;;
42662;SDS011;44330;51.360;6.686;2023-04-30T03:27:45;24.55;;;14.20;;
42662;SDS011;44330;51.360;6.686;2023-04-30T03:30:11;26.58;;;15.98;;
42662;SDS011;44330;51.360;6.686;2023-04-30T03:32:36;27.95;;;15.95;;
42662;SDS011;44330;51.360;6.686;2023-04-30T03:35:02;30.52;;;16.15;;
42662;SDS011;44330;51.360;6.686;2023-04-30T03:37:28;29.10;;;15.95;;
42662;SDS011;44330;51.360;6.686;2023-04-30T03:39:54;28.90;;;16.65;;
42662;SDS011;44330;51.360;6.686;2023-04-30T03:42:19;25.25;;;16.45;;
42662;SDS011;44330;51.360;6.686;2023-04-30T03:44:45;30.10;;;17.17;;
42662;SDS011;44330;51.360;6.686;2023-04-30T03:47:11;33.72;;;17.02;;
42662;SDS011;44330;51.360;6.686;2023-04-30T03:49:36;28.58;;;16.10;;
42662;SDS011;44330;51.360;6.686;2023-04-30T03:52:02;27.83;;;16.45;;
42662;SDS011;44330;51.360;6.686;2023-04-30T03:54:29;28.88;;;16.35;;
42662;SDS011;44330;51.360;6.686;2023-04-30T03:56:55;30.63;;;16.10;;
42662;SDS011;44330;51.360;6.686;2023-04-30T03:59:21;31.92;;;17.13;;
42662;SDS011;44330;51.360;6.686;2023-04-30T04:01:47;26.40;;;15.80;;
42662;SDS011;44330;51.360;6.686;2023-04-30T04:04:12;29.00;;;16.33;;
42662;SDS011;44330;51.360;6.686;2023-04-30T04:06:38;26.30;;;15.80;;
42662;SDS011;44330;51.360;6.686;2023-04-30T04:09:04;34.30;;;18.05;;
42662;SDS011;44330;51.360;6.686;2023-04-30T04:11:30;31.80;;;17.90;;
42662;SDS011;44330;51.360;6.686;2023-04-30T04:13:55;32.10;;;17.95;;
42662;SDS011;44330;51.360;6.686;2023-04-30T04:16:21;31.65;;;18.83;;
42662;SDS011;44330;51.360;6.686;2023-04-30T04:18:47;31.15;;;18.35;;
42662;SDS011;44330;51.360;6.686;2023-04-30T04:21:12;33.40;;;17.80;;
42662;SDS011;44330;51.360;6.686;2023-04-30T04:23:38;31.38;;;17.55;;
42662;SDS011;44330;51.360;6.686;2023-04-30T04:26:03;29.65;;;16.85;;
42662;SDS011;44330;51.360;6.686;2023-04-30T04:28:29;28.98;;;16.90;;
42662;SDS011;44330;51.360;6.686;2023-04-30T04:30:55;28.10;;;16.77;;
42662;SDS011;44330;51.360;6.686;2023-04-30T04:33:20;29.92;;;18.15;;
42662;SDS011;44330;51.360;6.686;2023-04-30T04:35:46;28.35;;;17.40;;
42662;SDS011;44330;51.360;6.686;2023-04-30T04:38:11;26.48;;;16.55;;
42662;SDS011;44330;51.360;6.686;2023-04-30T04:40:37;32.20;;;18.50;;
42662;SDS011;44330;51.360;6.686;2023-04-30T04:43:02;31.00;;;17.40;;
42662;SDS011;44330;51.360;6.686;2023-04-30T04:45:28;32.50;;;18.48;;
42662;SDS011;44330;51.360;6.686;2023-04-30T04:47:53;36.15;;;18.98;;
42662;SDS011;44330;51.360;6.686;2023-04-30T04:50:19;33.35;;;16.73;;
42662;SDS011;44330;51.360;6.686;2023-04-30T04:52:45;30.38;;;16.42;;
42662;SDS011;44330;51.360;6.686;2023-04-30T04:55:10;32.15;;;17.77;;
42662;SDS011;44330;51.360;6.686;2023-04-30T04:57:36;28.88;;;16.85;;
42662;SDS011;44330;51.360;6.686;2023-04-30T05:00:01;28.20;;;16.35;;
42662;SDS011;44330;51.360;6.686;2023-04-30T05:02:30;23.70;;;13.45;;
42662;SDS011;44330;51.360;6.686;2023-04-30T05:04:55;38.10;;;19.13;;
42662;SDS011;44330;51.360;6.686;2023-04-30T05:07:21;48.75;;;20.23;;
42662;SDS011;44330;51.360;6.686;2023-04-30T05:09:47;60.17;;;23.10;;
42662;SDS011;44330;51.360;6.686;2023-04-30T05:12:12;47.50;;;22.48;;
42662;SDS011;44330;51.360;6.686;2023-04-30T05:14:38;48.47;;;21.95;;
42662;SDS011;44330;51.360;6.686;2023-04-30T05:17:05;38.30;;;18.17;;
42662;SDS011;44330;51.360;6.686;2023-04-30T05:19:31;25.02;;;15.52;;
42662;SDS011;44330;51.360;6.686;2023-04-30T05:21:56;33.63;;;18.08;;
42662;SDS011;44330;51.360;6.686;2023-04-30T05:24:22;32.45;;;18.70;;
42662;SDS011;44330;51.360;6.686;2023-04-30T05:26:48;24.80;;;15.10;;
42662;SDS011;44330;51.360;6.686;2023-04-30T05:29:13;24.98;;;15.93;;
42662;SDS011;44330;51.360;6.686;2023-04-30T05:31:39;27.27;;;16.23;;
42662;SDS011;44330;51.360;6.686;2023-04-30T05:34:05;31.23;;;17.95;;
42662;SDS011;44330;51.360;6.686;2023-04-30T05:36:31;43.95;;;19.35;;
42662;SDS011;44330;51.360;6.686;2023-04-30T05:38:56;61.15;;;25.27;;
42662;SDS011;44330;51.360;6.686;2023-04-30T05:41:22;52.08;;;21.17;;
42662;SDS011;44330;51.360;6.686;2023-04-30T05:43:47;44.97;;;20.92;;
42662;SDS011;44330;51.360;6.686;2023-04-30T05:46:13;33.47;;;19.08;;
42662;SDS011;44330;51.360;6.686;2023-04-30T05:48:39;33.50;;;17.80;;
42662;SDS011;44330;51.360;6.686;2023-04-30T05:51:05;28.13;;;16.20;;
42662;SDS011;44330;51.360;6.686;2023-04-30T05:53:31;29.65;;;14.90;;
42662;SDS011;44330;51.360;6.686;2023-04-30T05:55:56;31.95;;;15.15;;
42662;SDS011;44330;51.360;6.686;2023-04-30T05:58:22;41.88;;;20.10;;
42662;SDS011;44330;51.360;6.686;2023-04-30T06:00:48;28.02;;;15.00;;
42662;SDS011;44330;51.360;6.686;2023-04-30T06:03:15;32.30;;;14.88;;
42662;SDS011;44330;51.360;6.686;2023-04-30T06:05:42;20.95;;;13.25;;
42662;SDS011;44330;51.360;6.686;2023-04-30T06:08:08;19.40;;;13.40;;
42662;SDS011;44330;51.360;6.686;2023-04-30T06:10:33;21.40;;;13.55;;
42662;SDS011;44330;51.360;6.686;2023-04-30T06:12:59;23.05;;;13.98;;
42662;SDS011;44330;51.360;6.686;2023-04-30T06:15:25;23.58;;;13.98;;
42662;SDS011;44330;51.360;6.686;2023-04-30T06:17:50;20.77;;;13.75;;
42662;SDS011;44330;51.360;6.686;2023-04-30T06:20:16;25.83;;;15.07;;
42662;SDS011;44330;51.360;6.686;2023-04-30T06:22:42;23.58;;;14.93;;
42662;SDS011;44330;51.360;6.686;2023-04-30T06:25:07;22.63;;;13.50;;
42662;SDS011;44330;51.360;6.686;2023-04-30T06:27:33;21.02;;;12.95;;
42662;SDS011;44330;51.360;6.686;2023-04-30T06:29:59;20.35;;;13.07;;
42662;SDS011;44330;51.360;6.686;2023-04-30T06:32:25;23.15;;;13.07;;
42662;SDS011;44330;51.360;6.686;2023-04-30T06:34:50;23.50;;;11.90;;
42662;SDS011;44330;51.360;6.686;2023-04-30T06:37:16;21.05;;;11.55;;
42662;SDS011;44330;51.360;6.686;2023-04-30T06:39:44;17.63;;;11.65;;
42662;SDS011;44330;51.360;6.686;2023-04-30T06:42:10;19.27;;;12.25;;
42662;SDS011;44330;51.360;6.686;2023-04-30T06:44:35;17.88;;;12.25;;
42662;SDS011;44330;51.360;6.686;2023-04-30T06:47:01;19.73;;;11.35;;
42662;SDS011;44330;51.360;6.686;2023-04-30T06:49:26;20.88;;;11.00;;
42662;SDS011;44330;51.360;6.686;2023-04-30T06:51:52;17.77;;;10.88;;
42662;SDS011;44330;51.360;6.686;2023-04-30T06:54:19;16.80;;;11.43;;
42662;SDS011;44330;51.360;6.686;2023-04-30T06:56:47;17.88;;;11.02;;
42662;SDS011;44330;51.360;6.686;2023-04-30T06:59:12;17.60;;;10.80;;
42662;SDS011;44330;51.360;6.686;2023-04-30T07:01:38;22.55;;;11.07;;
42662;SDS011;44330;51.360;6.686;2023-04-30T07:04:04;16.40;;;10.60;;
42662;SDS011;44330;51.360;6.686;2023-04-30T07:06:30;23.70;;;12.82;;
42662;SDS011;44330;51.360;6.686;2023-04-30T07:08:55;18.15;;;10.90;;
42662;SDS011;44330;51.360;6.686;2023-04-30T07:11:21;18.05;;;9.40;;
42662;SDS011;44330;51.360;6.686;2023-04-30T07:13:47;15.38;;;9.93;;
42662;SDS011;44330;51.360;6.686;2023-04-30T07:16:12;18.08;;;10.32;;
42662;SDS011;44330;51.360;6.686;2023-04-30T07:18:40;19.60;;;10.23;;
42662;SDS011;44330;51.360;6.686;2023-04-30T07:21:06;13.88;;;9.27;;
42662;SDS011;44330;51.360;6.686;2023-04-30T07:23:32;17.42;;;9.60;;
42662;SDS011;44330;51.360;6.686;2023-04-30T07:25:58;13.10;;;8.77;;
42662;SDS011;44330;51.360;6.686;2023-04-30T07:28:24;13.68;;;8.65;;
42662;SDS011;44330;51.360;6.686;2023-04-30T07:30:49;17.83;;;9.02;;
42662;SDS011;44330;51.360;6.686;2023-04-30T07:33:16;14.88;;;8.55;;
42662;SDS011;44330;51.360;6.686;2023-04-30T07:35:41;11.70;;;8.23;;
42662;SDS011;44330;51.360;6.686;2023-04-30T07:38:09;12.93;;;8.65;;
42662;SDS011;44330;51.360;6.686;2023-04-30T07:40:35;9.33;;;6.60;;
42662;SDS011;44330;51.360;6.686;2023-04-30T07:43:01;11.50;;;7.63;;
42662;SDS011;44330;51.360;6.686;2023-04-30T07:45:29;13.63;;;8.63;;
42662;SDS011;44330;51.360;6.686;2023-04-30T07:47:55;12.98;;;7.80;;
42662;SDS011;44330;51.360;6.686;2023-04-30T07:50:21;12.95;;;8.43;;
42662;SDS011;44330;51.360;6.686;2023-04-30T07:52:47;12.63;;;9.10;;
42662;SDS011;44330;51.360;6.686;2023-04-30T07:55:16;14.68;;;7.78;;
42662;SDS011;44330;51.360;6.686;2023-04-30T07:57:44;22.98;;;9.73;;
42662;SDS011;44330;51.360;6.686;2023-04-30T08:00:10;13.23;;;7.97;;
42662;SDS011;44330;51.360;6.686;2023-04-30T08:02:37;9.50;;;6.60;;
42662;SDS011;44330;51.360;6.686;2023-04-30T08:05:03;16.48;;;8.35;;
42662;SDS011;44330;51.360;6.686;2023-04-30T08:07:29;12.75;;;7.72;;
42662;SDS011;44330;51.360;6.686;2023-04-30T08:09:55;12.55;;;7.63;;
42662;SDS011;44330;51.360;6.686;2023-04-30T08:12:20;13.15;;;8.05;;
42662;SDS011;44330;51.360;6.686;2023-04-30T08:14:46;13.93;;;7.40;;
42662;SDS011;44330;51.360;6.686;2023-04-30T08:17:11;12.10;;;7.13;;
42662;SDS011;44330;51.360;6.686;2023-04-30T08:19:37;10.80;;;7.80;;
42662;SDS011;44330;51.360;6.686;2023-04-30T08:22:02;12.18;;;7.10;;
42662;SDS011;44330;51.360;6.686;2023-04-30T08:24:28;9.65;;;7.03;;
42662;SDS011;44330;51.360;6.686;2023-04-30T08:26:54;9.30;;;6.50;;
42662;SDS011;44330;51.360;6.686;2023-04-30T08:29:19;10.82;;;7.18;;
42662;SDS011;44330;51.360;6.686;2023-04-30T08:31:45;15.38;;;8.48;;
42662;SDS011;44330;51.360;6.686;2023-04-30T08:34:10;13.93;;;7.40;;
42662;SDS011;44330;51.360;6.686;2023-04-30T08:36:36;8.50;;;5.68;;
42662;SDS011;44330;51.360;6.686;2023-04-30T08:39:01;10.55;;;7.43;;
42662;SDS011;44330;51.360;6.686;2023-04-30T08:41:29;10.55;;;7.63;;
42662;SDS011;44330;51.360;6.686;2023-04-30T08:43:59;9.15;;;7.07;;
42662;SDS011;44330;51.360;6.686;2023-04-30T08:46:26;10.80;;;7.63;;
42662;SDS011;44330;51.360;6.686;2023-04-30T08:48:55;12.25;;;6.80;;
42662;SDS011;44330;51.360;6.686;2023-04-30T08:51:21;9.55;;;6.65;;
42662;SDS011;44330;51.360;6.686;2023-04-30T08:53:50;10.00;;;7.30;;
42662;SDS011;44330;51.360;6.686;2023-04-30T08:56:20;10.60;;;6.70;;
42662;SDS011;44330;51.360;6.686;2023-04-30T08:58:46;11.30;;;7.13;;
42662;SDS011;44330;51.360;6.686;2023-04-30T09:01:12;8.98;;;6.53;;
42662;SDS011;44330;51.360;6.686;2023-04-30T09:03:37;9.68;;;5.90;;
42662;SDS011;44330;51.360;6.686;2023-04-30T09:06:03;9.48;;;5.85;;
42662;SDS011;44330;51.360;6.686;2023-04-30T09:08:39;10.38;;;6.65;;
42662;SDS011;44330;51.360;6.686;2023-04-30T09:11:25;10.10;;;6.80;;
42662;SDS011;44330;51.360;6.686;2023-04-30T09:13:59;9.65;;;6.60;;
42662;SDS011;44330;51.360;6.686;2023-04-30T09:16:26;9.55;;;6.80;;
42662;SDS011;44330;51.360;6.686;2023-04-30T09:19:08;7.38;;;5.90;;
42662;SDS011;44330;51.360;6.686;2023-04-30T09:21:35;12.02;;;5.70;;
42662;SDS011;44330;51.360;6.686;2023-04-30T09:24:02;9.93;;;6.05;;
42662;SDS011;44330;51.360;6.686;2023-04-30T09:26:35;18.20;;;6.18;;
42662;SDS011;44330;51.360;6.686;2023-04-30T09:29:02;8.02;;;5.55;;
42662;SDS011;44330;51.360;6.686;2023-04-30T09:31:32;7.18;;;5.72;;
42662;SDS011;44330;51.360;6.686;2023-04-30T09:33:59;7.43;;;5.43;;
42662;SDS011;44330;51.360;6.686;2023-04-30T09:36:25;6.20;;;4.97;;
42662;SDS011;44330;51.360;6.686;2023-04-30T09:38:51;9.40;;;6.90;;
42662;SDS011;44330;51.360;6.686;2023-04-30T09:41:21;8.95;;;5.18;;
42662;SDS011;44330;51.360;6.686;2023-04-30T09:43:47;5.97;;;4.60;;
42662;SDS011;44330;51.360;6.686;2023-04-30T09:46:13;6.25;;;4.80;;
42662;SDS011;44330;51.360;6.686;2023-04-30T09:48:42;7.22;;;4.88;;
42662;SDS011;44330;51.360;6.686;2023-04-30T09:51:08;9.77;;;5.20;;
42662;SDS011;44330;51.360;6.686;2023-04-30T09:53:36;6.78;;;4.93;;
42662;SDS011;44330;51.360;6.686;2023-04-30T09:56:02;5.60;;;4.30;;
42662;SDS011;44330;51.360;6.686;2023-04-30T09:58:31;5.60;;;3.92;;
42662;SDS011;44330;51.360;6.686;2023-04-30T10:01:03;5.57;;;3.63;;
42662;SDS011;44330;51.360;6.686;2023-04-30T10:03:31;3.50;;;2.70;;
42662;SDS011;44330;51.360;6.686;2023-04-30T10:05:57;4.68;;;3.45;;
42662;SDS011;44330;51.360;6.686;2023-04-30T10:08:27;4.38;;;2.47;;
42662;SDS011;44330;51.360;6.686;2023-04-30T10:11:17;4.05;;;2.05;;
42662;SDS011;44330;51.360;6.686;2023-04-30T10:14:00;3.17;;;1.98;;
42662;SDS011;44330;51.360;6.686;2023-04-30T10:19:23;4.57;;;2.53;;
42662;SDS011;44330;51.360;6.686;2023-04-30T10:21:50;4.90;;;2.47;;
42662;SDS011;44330;51.360;6.686;2023-04-30T10:24:19;5.20;;;3.28;;
42662;SDS011;44330;51.360;6.686;2023-04-30T10:26:46;4.68;;;3.00;;
42662;SDS011;44330;51.360;6.686;2023-04-30T10:29:12;3.25;;;2.70;;
42662;SDS011;44330;51.360;6.686;2023-04-30T10:31:44;3.42;;;2.75;;
42662;SDS011;44330;51.360;6.686;2023-04-30T10:34:16;3.95;;;2.90;;
42662;SDS011;44330;51.360;6.686;2023-04-30T10:36:44;3.53;;;2.97;;
42662;SDS011;44330;51.360;6.686;2023-04-30T10:39:18;2.95;;;2.42;;
42662;SDS011;44330;51.360;6.686;2023-04-30T10:41:51;3.28;;;2.58;;
42662;SDS011;44330;51.360;6.686;2023-04-30T10:44:26;5.80;;;2.45;;
42662;SDS011;44330;51.360;6.686;2023-04-30T10:47:00;5.40;;;2.80;;
42662;SDS011;44330;51.360;6.686;2023-04-30T10:49:29;4.30;;;3.45;;
42662;SDS011;44330;51.360;6.686;2023-04-30T10:52:01;5.25;;;2.90;;
42662;SDS011;44330;51.360;6.686;2023-04-30T10:54:52;4.75;;;2.80;;
42662;SDS011;44330;51.360;6.686;2023-04-30T10:57:20;6.75;;;3.80;;
42662;SDS011;44330;51.360;6.686;2023-04-30T11:02:39;4.13;;;2.55;;
42662;SDS011;44330;51.360;6.686;2023-04-30T11:07:48;6.05;;;3.15;;
42662;SDS011;44330;51.360;6.686;2023-04-30T11:10:15;4.55;;;3.38;;
42662;SDS011;44330;51.360;6.686;2023-04-30T11:12:46;9.23;;;3.08;;
42662;SDS011;44330;51.360;6.686;2023-04-30T11:15:13;5.25;;;2.80;;
42662;SDS011;44330;51.360;6.686;2023-04-30T11:17:42;4.78;;;2.70;;
42662;SDS011;44330;51.360;6.686;2023-04-30T11:20:11;4.05;;;2.67;;
42662;SDS011;44330;51.360;6.686;2023-04-30T11:22:37;11.82;;;5.68;;
42662;SDS011;44330;51.360;6.686;2023-04-30T11:27:34;5.20;;;3.40;;
42662;SDS011;44330;51.360;6.686;2023-04-30T11:30:15;5.28;;;2.28;;
42662;SDS011;44330;51.360;6.686;2023-04-30T11:33:04;8.07;;;5.43;;
42662;SDS011;44330;51.360;6.686;2023-04-30T11:35:36;8.35;;;5.20;;
42662;SDS011;44330;51.360;6.686;2023-04-30T11:38:15;3.30;;;2.40;;
42662;SDS011;44330;51.360;6.686;2023-04-30T11:40:52;2.95;;;1.88;;
42662;SDS011;44330;51.360;6.686;2023-04-30T11:43:27;8.50;;;3.38;;
42662;SDS011;44330;51.360;6.686;2023-04-30T11:46:03;4.60;;;2.70;;
42662;SDS011;44330;51.360;6.686;2023-04-30T11:48:41;3.20;;;2.63;;
42662;SDS011;44330;51.360;6.686;2023-04-30T11:53:48;9.48;;;3.30;;
42662;SDS011;44330;51.360;6.686;2023-04-30T11:56:22;7.95;;;2.92;;
42662;SDS011;44330;51.360;6.686;2023-04-30T11:58:54;3.05;;;1.80;;
42662;SDS011;44330;51.360;6.686;2023-04-30T12:01:20;5.53;;;2.30;;
42662;SDS011;44330;51.360;6.686;2023-04-30T12:03:55;3.15;;;2.17;;
42662;SDS011;44330;51.360;6.686;2023-04-30T12:06:22;2.53;;;1.98;;
42662;SDS011;44330;51.360;6.686;2023-04-30T12:08:51;2.73;;;1.33;;
42662;SDS011;44330;51.360;6.686;2023-04-30T12:11:32;1.98;;;1.58;;
42662;SDS011;44330;51.360;6.686;2023-04-30T12:14:05;2.83;;;1.75;;
42662;SDS011;44330;51.360;6.686;2023-04-30T12:16:40;2.70;;;2.20;;
42662;SDS011;44330;51.360;6.686;2023-04-30T12:19:18;3.63;;;2.13;;
42662;SDS011;44330;51.360;6.686;2023-04-30T12:21:45;2.38;;;1.80;;
42662;SDS011;44330;51.360;6.686;2023-04-30T12:24:16;2.08;;;1.80;;
42662;SDS011;44330;51.360;6.686;2023-04-30T12:26:42;3.47;;;1.90;;
42662;SDS011;44330;51.360;6.686;2023-04-30T12:29:10;7.40;;;3.97;;
42662;SDS011;44330;51.360;6.686;2023-04-30T12:31:39;2.08;;;1.85;;
42662;SDS011;44330;51.360;6.686;2023-04-30T12:34:06;4.40;;;1.85;;
42662;SDS011;44330;51.360;6.686;2023-04-30T12:36:34;4.43;;;1.55;;
42662;SDS011;44330;51.360;6.686;2023-04-30T12:39:13;1.83;;;1.52;;
42662;SDS011;44330;51.360;6.686;2023-04-30T12:44:41;7.45;;;1.83;;
42662;SDS011;44330;51.360;6.686;2023-04-30T12:47:09;2.17;;;1.60;;
42662;SDS011;44330;51.360;6.686;2023-04-30T12:49:35;5.45;;;1.60;;
42662;SDS011;44330;51.360;6.686;2023-04-30T12:52:05;1.52;;;1.40;;
42662;SDS011;44330;51.360;6.686;2023-04-30T12:54:33;2.67;;;1.95;;
42662;SDS011;44330;51.360;6.686;2023-04-30T12:57:06;2.38;;;1.73;;
42662;SDS011;44330;51.360;6.686;2023-04-30T13:02:21;2.35;;;1.50;;
42662;SDS011;44330;51.360;6.686;2023-04-30T13:04:48;1.38;;;1.23;;
42662;SDS011;44330;51.360;6.686;2023-04-30T13:07:14;2.00;;;1.23;;
42662;SDS011;44330;51.360;6.686;2023-04-30T13:09:39;2.88;;;1.23;;
42662;SDS011;44330;51.360;6.686;2023-04-30T13:12:08;2.72;;;1.27;;
42662;SDS011;44330;51.360;6.686;2023-04-30T13:17:28;1.92;;;1.05;;
42662;SDS011;44330;51.360;6.686;2023-04-30T13:19:53;2.53;;;1.30;;
42662;SDS011;44330;51.360;6.686;2023-04-30T13:22:19;2.47;;;1.45;;
42662;SDS011;44330;51.360;6.686;2023-04-30T13:24:44;6.88;;;2.75;;
42662;SDS011;44330;51.360;6.686;2023-04-30T13:27:10;2.03;;;1.13;;
42662;SDS011;44330;51.360;6.686;2023-04-30T13:29:36;2.97;;;1.10;;
42662;SDS011;44330;51.360;6.686;2023-04-30T13:32:04;1.05;;;0.93;;
42662;SDS011;44330;51.360;6.686;2023-04-30T13:34:30;1.25;;;0.80;;
42662;SDS011;44330;51.360;6.686;2023-04-30T13:36:55;3.40;;;1.25;;
42662;SDS011;44330;51.360;6.686;2023-04-30T13:39:21;2.72;;;1.33;;
42662;SDS011;44330;51.360;6.686;2023-04-30T13:41:47;1.20;;;1.10;;
42662;SDS011;44330;51.360;6.686;2023-04-30T13:44:13;1.20;;;1.10;;
42662;SDS011;44330;51.360;6.686;2023-04-30T13:46:38;2.15;;;1.20;;
42662;SDS011;44330;51.360;6.686;2023-04-30T13:49:04;1.83;;;1.00;;
42662;SDS011;44330;51.360;6.686;2023-04-30T13:51:30;2.05;;;1.00;;
42662;SDS011;44330;51.360;6.686;2023-04-30T13:53:56;1.67;;;1.00;;
42662;SDS011;44330;51.360;6.686;2023-04-30T13:56:22;2.53;;;0.98;;
42662;SDS011;44330;51.360;6.686;2023-04-30T13:58:48;1.48;;;0.88;;
42662;SDS011;44330;51.360;6.686;2023-04-30T14:01:13;2.25;;;1.40;;
42662;SDS011;44330;51.360;6.686;2023-04-30T14:03:57;1.67;;;1.40;;
42662;SDS011;44330;51.360;6.686;2023-04-30T14:06:25;1.15;;;0.95;;
42662;SDS011;44330;51.360;6.686;2023-04-30T14:08:53;3.28;;;1.48;;
42662;SDS011;44330;51.360;6.686;2023-04-30T14:11:21;4.75;;;3.97;;
42662;SDS011;44330;51.360;6.686;2023-04-30T14:13:47;1.95;;;1.70;;
42662;SDS011;44330;51.360;6.686;2023-04-30T14:16:12;4.60;;;1.80;;
42662;SDS011;44330;51.360;6.686;2023-04-30T14:18:38;12.43;;;11.07;;
42662;SDS011;44330;51.360;6.686;2023-04-30T14:21:03;2.65;;;1.42;;
42662;SDS011;44330;51.360;6.686;2023-04-30T14:23:29;3.25;;;2.40;;
42662;SDS011;44330;51.360;6.686;2023-04-30T14:25:55;3.40;;;1.30;;
42662;SDS011;44330;51.360;6.686;2023-04-30T14:28:20;12.73;;;8.68;;
42662;SDS011;44330;51.360;6.686;2023-04-30T14:30:46;1.83;;;1.23;;
42662;SDS011;44330;51.360;6.686;2023-04-30T14:33:12;3.00;;;1.27;;
42662;SDS011;44330;51.360;6.686;2023-04-30T14:35:38;2.30;;;1.20;;
42662;SDS011;44330;51.360;6.686;2023-04-30T14:38:05;2.60;;;1.17;;
42662;SDS011;44330;51.360;6.686;2023-04-30T14:40:31;2.08;;;1.33;;
42662;SDS011;44330;51.360;6.686;2023-04-30T14:42:56;3.15;;;2.08;;
42662;SDS011;44330;51.360;6.686;2023-04-30T14:45:22;1.40;;;1.30;;
42662;SDS011;44330;51.360;6.686;2023-04-30T14:47:48;1.45;;;0.95;;
42662;SDS011;44330;51.360;6.686;2023-04-30T14:50:14;1.35;;;0.82;;
42662;SDS011;44330;51.360;6.686;2023-04-30T14:52:39;1.02;;;0.80;;
42662;SDS011;44330;51.360;6.686;2023-04-30T14:55:06;4.55;;;0.93;;
42662;SDS011;44330;51.360;6.686;2023-04-30T14:57:32;4.72;;;1.17;;
42662;SDS011;44330;51.360;6.686;2023-04-30T14:59:58;1.95;;;1.17;;
42662;SDS011;44330;51.360;6.686;2023-04-30T15:02:24;8.02;;;1.77;;
42662;SDS011;44330;51.360;6.686;2023-04-30T15:04:50;1.92;;;1.00;;
42662;SDS011;44330;51.360;6.686;2023-04-30T15:07:16;1.33;;;1.02;;
42662;SDS011;44330;51.360;6.686;2023-04-30T15:09:42;2.67;;;0.93;;
42662;SDS011;44330;51.360;6.686;2023-04-30T15:12:08;2.08;;;1.17;;